Time;durP1;ratioP1;P1;durP2;ratioP2;P2;SDS_P1;SDS_P2;PMS_P1;PMS_P2;Temp;Humidity;BMP_temperature;BMP_pressure;BME280_temperature;BME280_humidity;BME280_pressure;Samples;Min_cycle;Max_cycle;Signal;HPM_P1;HPM_P2
2022/11/16 00:01:00;;;;;;;9.60;2.00;;;;;;;;;;4989758;28;20121;-62
2022/11/16 00:03:27;;;;;;;9.40;1.92;;;;;;;;;;4989253;28;20110;-62
2022/11/16 00:06:01;;;;;;;9.93;1.45;;;;;;;;;;4989350;28;20080;-62
2022/11/16 00:08:31;;;;;;;6.95;1.83;;;;;;;;;;4989277;28;20036;-62
2022/11/16 00:11:03;;;;;;;12.38;1.83;;;;;;;;;;4989675;28;20087;-62
2022/11/16 00:13:31;;;;;;;8.57;1.88;;;;;;;;;;4989374;28;20090;-62
2022/11/16 00:15:57;;;;;;;12.07;1.70;;;;;;;;;;4988325;28;20038;-62
2022/11/16 00:18:23;;;;;;;7.63;1.63;;;;;;;;;;4989817;28;20062;-62
2022/11/16 00:20:50;;;;;;;9.88;2.17;;;;;;;;;;4989076;28;20105;-61
2022/11/16 00:23:16;;;;;;;9.43;2.72;;;;;;;;;;4989413;28;20073;-62
2022/11/16 00:25:42;;;;;;;10.85;2.55;;;;;;;;;;4988498;28;20022;-62
2022/11/16 00:28:09;;;;;;;7.32;1.83;;;;;;;;;;4989378;28;20480;-62
2022/11/16 00:30:35;;;;;;;7.10;1.92;;;;;;;;;;4987894;28;20033;-62
2022/11/16 00:33:02;;;;;;;11.60;1.70;;;;;;;;;;4989326;28;20026;-62
2022/11/16 00:35:28;;;;;;;11.60;2.03;;;;;;;;;;4988560;28;20065;-61
2022/11/16 00:37:55;;;;;;;10.52;2.13;;;;;;;;;;4989220;28;20512;-62
2022/11/16 00:40:21;;;;;;;13.88;1.98;;;;;;;;;;4987991;28;20038;-62
2022/11/16 00:42:48;;;;;;;7.68;1.98;;;;;;;;;;4987869;28;20522;-61
2022/11/16 00:45:14;;;;;;;9.80;1.92;;;;;;;;;;4987685;28;20041;-62
2022/11/16 00:47:40;;;;;;;8.95;1.77;;;;;;;;;;4989130;28;20480;-62
2022/11/16 00:50:06;;;;;;;6.25;1.42;;;;;;;;;;4988357;28;20033;-61
2022/11/16 00:52:33;;;;;;;5.43;1.67;;;;;;;;;;4989038;28;20101;-62
2022/11/16 00:54:59;;;;;;;7.32;1.33;;;;;;;;;;4987629;28;20121;-62
2022/11/16 00:57:25;;;;;;;6.10;1.35;;;;;;;;;;4984177;28;20034;-62
2022/11/16 00:59:51;;;;;;;7.05;1.58;;;;;;;;;;4988726;28;20026;-62
2022/11/16 01:02:18;;;;;;;6.78;1.13;;;;;;;;;;4989191;28;20030;-62
2022/11/16 01:04:44;;;;;;;7.13;1.70;;;;;;;;;;4978986;28;20061;-62
2022/11/16 01:07:10;;;;;;;7.20;1.75;;;;;;;;;;4988891;28;20033;-62
2022/11/16 01:09:36;;;;;;;9.95;1.63;;;;;;;;;;4987519;28;20031;-62
2022/11/16 01:12:08;;;;;;;6.75;1.45;;;;;;;;;;4987628;28;20022;-62
2022/11/16 01:14:35;;;;;;;11.23;2.73;;;;;;;;;;4988568;28;20027;-62
2022/11/16 01:17:01;;;;;;;7.38;1.58;;;;;;;;;;4988958;28;20018;-62
2022/11/16 01:19:27;;;;;;;7.63;1.17;;;;;;;;;;4986738;28;20179;-62
2022/11/16 01:21:53;;;;;;;9.00;1.17;;;;;;;;;;4988591;28;20030;-62
2022/11/16 01:24:19;;;;;;;7.60;1.33;;;;;;;;;;4988577;28;20396;-62
2022/11/16 01:26:45;;;;;;;4.15;1.20;;;;;;;;;;4987492;28;20057;-62
2022/11/16 01:29:12;;;;;;;3.90;0.88;;;;;;;;;;4991766;28;20018;-62
2022/11/16 01:31:42;;;;;;;6.32;2.22;;;;;;;;;;4992202;28;20026;-62
2022/11/16 01:34:08;;;;;;;3.22;0.90;;;;;;;;;;4990412;28;20033;-62
2022/11/16 01:36:35;;;;;;;8.07;1.05;;;;;;;;;;4991942;28;20511;-62
2022/11/16 01:39:03;;;;;;;5.10;0.90;;;;;;;;;;4990497;28;20027;-62
2022/11/16 01:41:38;;;;;;;7.72;1.10;;;;;;;;;;4990796;28;20026;-62
2022/11/16 01:44:06;;;;;;;6.60;0.80;;;;;;;;;;4991764;28;20410;-62
2022/11/16 01:46:45;;;;;;;10.40;1.30;;;;;;;;;;4989958;28;20082;-62
2022/11/16 01:49:16;;;;;;;6.70;1.30;;;;;;;;;;4990197;28;20423;-62
2022/11/16 01:51:44;;;;;;;8.63;1.35;;;;;;;;;;4990014;28;20030;-62
2022/11/16 01:54:13;;;;;;;9.30;0.88;;;;;;;;;;4990737;28;20122;-62
2022/11/16 01:56:49;;;;;;;5.07;1.15;;;;;;;;;;4990072;28;20041;-62
2022/11/16 01:59:32;;;;;;;8.70;1.00;;;;;;;;;;4990382;28;20450;-62
2022/11/16 02:01:59;;;;;;;5.57;1.17;;;;;;;;;;4989459;28;20490;-62
2022/11/16 02:04:26;;;;;;;7.45;1.30;;;;;;;;;;4990165;28;20059;-62
2022/11/16 02:07:07;;;;;;;6.40;1.35;;;;;;;;;;4991024;28;20101;-62
2022/11/16 02:09:58;;;;;;;4.38;1.08;;;;;;;;;;4990068;28;20088;-62
2022/11/16 02:12:32;;;;;;;6.30;1.02;;;;;;;;;;4989970;28;20037;-63
2022/11/16 02:15:17;;;;;;;6.88;0.80;;;;;;;;;;4989702;28;20044;-62
2022/11/16 02:17:54;;;;;;;10.60;1.52;;;;;;;;;;4989405;28;20034;-62
2022/11/16 02:20:28;;;;;;;9.43;1.65;;;;;;;;;;4989982;28;20027;-62
2022/11/16 02:22:57;;;;;;;5.55;1.40;;;;;;;;;;4991131;28;20030;-62
2022/11/16 02:25:26;;;;;;;9.52;1.98;;;;;;;;;;4989853;28;20096;-62
2022/11/16 02:27:59;;;;;;;8.55;1.42;;;;;;;;;;4989416;28;20018;-62
2022/11/16 02:30:25;;;;;;;13.77;2.33;;;;;;;;;;4991047;28;20440;-62
2022/11/16 02:32:57;;;;;;;8.50;1.77;;;;;;;;;;4980099;28;20080;-62
2022/11/16 02:35:30;;;;;;;7.82;1.58;;;;;;;;;;4990957;28;20038;-63
2022/11/16 02:38:04;;;;;;;14.15;1.55;;;;;;;;;;4987515;28;20027;-62
2022/11/16 02:40:31;;;;;;;6.38;1.55;;;;;;;;;;4973906;28;20050;-62
2022/11/16 02:43:00;;;;;;;9.32;1.98;;;;;;;;;;4970650;28;20031;-62
2022/11/16 02:45:28;;;;;;;9.60;1.88;;;;;;;;;;4975112;28;20030;-62
2022/11/16 02:47:58;;;;;;;8.68;1.27;;;;;;;;;;4969375;28;20054;-62
2022/11/16 02:50:24;;;;;;;5.82;1.20;;;;;;;;;;4972995;28;20100;-62
2022/11/16 02:52:54;;;;;;;11.05;2.35;;;;;;;;;;4970393;28;20092;-62
2022/11/16 02:55:22;;;;;;;9.55;1.88;;;;;;;;;;4972617;28;20031;-62
2022/11/16 02:57:51;;;;;;;4.93;1.55;;;;;;;;;;4972521;28;20031;-62
2022/11/16 03:00:26;;;;;;;5.63;1.25;;;;;;;;;;4971648;28;20400;-62
2022/11/16 03:02:52;;;;;;;4.68;1.42;;;;;;;;;;4974458;28;20491;-62
2022/11/16 03:05:30;;;;;;;9.43;1.50;;;;;;;;;;4980542;28;21989;-62
2022/11/16 03:08:04;;;;;;;13.15;1.77;;;;;;;;;;4977258;28;20062;-62
2022/11/16 03:13:15;;;;;;;11.15;1.33;;;;;;;;;;4970130;28;19936;-62
2022/11/16 03:15:42;;;;;;;12.80;2.03;;;;;;;;;;4970138;28;20489;-62
2022/11/16 03:18:14;;;;;;;10.02;1.95;;;;;;;;;;4972184;28;20107;-62
2022/11/16 03:20:41;;;;;;;10.32;1.10;;;;;;;;;;4980798;28;20057;-61
2022/11/16 03:23:09;;;;;;;11.35;1.90;;;;;;;;;;4981574;28;20026;-62
2022/11/16 03:25:41;;;;;;;11.60;2.53;;;;;;;;;;4970396;28;20113;-62
2022/11/16 03:28:07;;;;;;;16.20;1.85;;;;;;;;;;4969545;28;21243;-62
2022/11/16 03:30:43;;;;;;;4.57;1.42;;;;;;;;;;4970721;28;20445;-62
2022/11/16 03:33:15;;;;;;;9.70;1.73;;;;;;;;;;4970366;28;20027;-62
2022/11/16 03:35:46;;;;;;;13.70;1.92;;;;;;;;;;4974831;28;20027;-62
2022/11/16 03:38:13;;;;;;;17.42;2.13;;;;;;;;;;4986987;28;20399;-62
2022/11/16 03:40:44;;;;;;;17.85;2.60;;;;;;;;;;4983456;28;20113;-62
2022/11/16 03:43:10;;;;;;;23.90;3.03;;;;;;;;;;4986064;28;20127;-62
2022/11/16 03:45:38;;;;;;;16.73;3.63;;;;;;;;;;4982483;28;20030;-62
2022/11/16 03:48:07;;;;;;;18.40;3.60;;;;;;;;;;4968336;28;20034;-62
2022/11/16 03:50:34;;;;;;;7.53;2.50;;;;;;;;;;4976604;28;20038;-62
2022/11/16 03:53:01;;;;;;;20.60;4.60;;;;;;;;;;4978890;28;20031;-62
2022/11/16 03:55:28;;;;;;;27.92;2.95;;;;;;;;;;4987797;28;20053;-62
2022/11/16 03:57:54;;;;;;;21.52;4.80;;;;;;;;;;4987749;28;20027;-62
2022/11/16 04:00:20;;;;;;;29.83;3.17;;;;;;;;;;4988331;28;20113;-62
2022/11/16 04:02:47;;;;;;;26.63;3.53;;;;;;;;;;4989397;28;20050;-61
2022/11/16 04:24:42;;;;;;;16.77;3.00;;;;;;;;;;4975508;28;20030;-62
2022/11/16 04:29:57;;;;;;;18.58;3.33;;;;;;;;;;4983555;28;20421;-62
2022/11/16 04:37:55;;;;;;;9.98;2.60;;;;;;;;;;4983202;28;20451;-62
2022/11/16 04:40:28;;;;;;;21.85;3.50;;;;;;;;;;4971475;28;20018;-62
2022/11/16 04:42:59;;;;;;;29.63;4.55;;;;;;;;;;4971100;28;20037;-62
2022/11/16 04:48:18;;;;;;;22.05;4.93;;;;;;;;;;4973411;28;20485;-62
2022/11/16 04:50:45;;;;;;;18.52;2.80;;;;;;;;;;4984170;28;20027;-62
2022/11/16 04:53:11;;;;;;;17.35;3.85;;;;;;;;;;4985483;28;20458;-62
2022/11/16 04:55:49;;;;;;;18.65;3.72;;;;;;;;;;4983815;28;20038;-62
2022/11/16 04:58:16;;;;;;;18.67;3.13;;;;;;;;;;4983545;28;20400;-62
2022/11/16 05:00:42;;;;;;;18.38;3.17;;;;;;;;;;4985212;28;20065;-62
2022/11/16 05:03:09;;;;;;;18.30;2.80;;;;;;;;;;4983337;28;20054;-62
2022/11/16 05:05:38;;;;;;;21.10;3.00;;;;;;;;;;4985211;28;20038;-63
2022/11/16 05:08:04;;;;;;;18.02;3.00;;;;;;;;;;4983054;28;20087;-62
2022/11/16 05:10:32;;;;;;;22.25;2.90;;;;;;;;;;4983713;28;20037;-62
2022/11/16 05:12:58;;;;;;;21.92;3.05;;;;;;;;;;4989663;28;20102;-62
2022/11/16 05:15:26;;;;;;;22.20;2.58;;;;;;;;;;4987566;28;20022;-63
2022/11/16 05:17:54;;;;;;;25.65;2.83;;;;;;;;;;4988864;28;20058;-62
2022/11/16 05:24:32;;;;;;;17.52;2.72;;;;;;;;;;4979322;28;20034;-62
2022/11/16 05:25:57;;;;;;;12.75;2.88;;;;;;;;;;4990311;28;20041;-62
2022/11/16 05:28:23;;;;;;;16.90;2.60;;;;;;;;;;4991755;28;20017;-62
2022/11/16 05:30:50;;;;;;;22.30;4.70;;;;;;;;;;4981695;28;20110;-62
2022/11/16 05:33:21;;;;;;;26.73;2.47;;;;;;;;;;4988488;28;20464;-62
2022/11/16 05:35:51;;;;;;;23.23;3.30;;;;;;;;;;4980802;28;20037;-62
2022/11/16 05:38:18;;;;;;;19.02;2.50;;;;;;;;;;4977350;28;20042;-62
2022/11/16 05:40:47;;;;;;;21.60;3.42;;;;;;;;;;4983578;28;20114;-62
2022/11/16 05:43:14;;;;;;;17.33;3.05;;;;;;;;;;4971953;28;20122;-62
2022/11/16 05:45:49;;;;;;;18.98;3.22;;;;;;;;;;4989822;28;20030;-62
2022/11/16 05:48:15;;;;;;;21.15;3.67;;;;;;;;;;4989789;28;20038;-62
2022/11/16 05:50:42;;;;;;;15.50;2.63;;;;;;;;;;4985659;28;20088;-61
2022/11/16 05:53:17;;;;;;;17.85;2.28;;;;;;;;;;5070442;28;20039;-63
2022/11/16 05:55:43;;;;;;;22.05;3.75;;;;;;;;;;4986981;28;20033;-62
2022/11/16 05:58:09;;;;;;;17.42;3.47;;;;;;;;;;4978749;28;20043;-62
2022/11/16 06:00:35;;;;;;;18.65;3.10;;;;;;;;;;4975825;28;20031;-62
2022/11/16 06:03:01;;;;;;;16.13;3.13;;;;;;;;;;4984537;28;20049;-62
2022/11/16 06:05:30;;;;;;;15.95;2.47;;;;;;;;;;4976174;28;20034;-62
2022/11/16 06:07:58;;;;;;;18.85;4.45;;;;;;;;;;4978032;28;20015;-62
2022/11/16 06:10:24;;;;;;;18.25;3.83;;;;;;;;;;4984913;28;20026;-62
2022/11/16 06:12:52;;;;;;;12.80;2.72;;;;;;;;;;4984281;28;20018;-62
2022/11/16 06:15:18;;;;;;;16.67;2.45;;;;;;;;;;4987774;28;20491;-62
2022/11/16 06:17:45;;;;;;;18.88;5.03;;;;;;;;;;4991006;28;20021;-62
2022/11/16 06:20:11;;;;;;;20.88;3.47;;;;;;;;;;4988735;28;20496;-62
2022/11/16 06:22:38;;;;;;;10.90;3.17;;;;;;;;;;4980441;28;20401;-62
2022/11/16 06:25:09;;;;;;;20.55;3.95;;;;;;;;;;4985720;28;20492;-62
2022/11/16 06:27:39;;;;;;;16.42;3.00;;;;;;;;;;4983401;28;20030;-62
2022/11/16 06:30:07;;;;;;;21.48;3.67;;;;;;;;;;4985540;28;20131;-62
2022/11/16 06:32:33;;;;;;;17.35;3.13;;;;;;;;;;4980380;28;20030;-62
2022/11/16 06:34:59;;;;;;;16.98;3.72;;;;;;;;;;4988143;28;20030;-62
2022/11/16 06:37:25;;;;;;;29.75;5.53;;;;;;;;;;4986585;28;20037;-62
2022/11/16 06:39:52;;;;;;;27.25;7.50;;;;;;;;;;4980695;28;20077;-62
2022/11/16 06:42:18;;;;;;;21.95;6.28;;;;;;;;;;4984517;28;20037;-62
2022/11/16 06:44:45;;;;;;;27.25;6.25;;;;;;;;;;4979472;28;20447;-63
2022/11/16 06:47:15;;;;;;;21.40;5.28;;;;;;;;;;4987995;28;20462;-62
2022/11/16 06:49:41;;;;;;;30.08;5.88;;;;;;;;;;4985467;28;20061;-62
2022/11/16 06:52:14;;;;;;;30.33;6.28;;;;;;;;;;4986998;28;20037;-62
2022/11/16 06:54:40;;;;;;;34.58;5.47;;;;;;;;;;4983207;28;20062;-62
2022/11/16 06:57:06;;;;;;;27.83;4.10;;;;;;;;;;4969494;28;20072;-62
2022/11/16 06:59:33;;;;;;;23.77;4.10;;;;;;;;;;4989818;28;20036;-62
2022/11/16 07:01:59;;;;;;;30.15;4.03;;;;;;;;;;4985871;28;20447;-62
2022/11/16 07:04:27;;;;;;;31.17;4.10;;;;;;;;;;4971770;28;20145;-62
2022/11/16 07:06:57;;;;;;;27.88;4.65;;;;;;;;;;4982179;28;20118;-62
2022/11/16 07:09:24;;;;;;;22.08;4.70;;;;;;;;;;4977138;28;20054;-62
2022/11/16 07:11:50;;;;;;;30.70;4.63;;;;;;;;;;4979445;28;20451;-62
2022/11/16 07:14:18;;;;;;;45.08;3.90;;;;;;;;;;4984463;28;20439;-62
2022/11/16 07:16:44;;;;;;;25.15;4.43;;;;;;;;;;4964270;28;20408;-62
2022/11/16 07:19:11;;;;;;;23.58;3.95;;;;;;;;;;4978242;28;20047;-62
2022/11/16 07:21:38;;;;;;;22.15;4.40;;;;;;;;;;4977900;28;20026;-62
2022/11/16 07:24:08;;;;;;;26.77;4.00;;;;;;;;;;4976603;28;20055;-62
2022/11/16 07:26:35;;;;;;;27.50;5.28;;;;;;;;;;4977689;28;20181;-62
2022/11/16 07:29:07;;;;;;;25.40;4.13;;;;;;;;;;4976168;28;20365;-61
2022/11/16 07:31:37;;;;;;;25.48;3.75;;;;;;;;;;4982437;28;20030;-61
2022/11/16 07:34:32;;;;;;;27.95;5.30;;;;;;;;;;4992530;28;20035;-61
2022/11/16 07:37:07;;;;;;;28.15;4.70;;;;;;;;;;4980326;28;20032;-61
2022/11/16 07:39:33;;;;;;;24.83;4.93;;;;;;;;;;4979283;28;20027;-61
2022/11/16 07:42:00;;;;;;;32.65;7.55;;;;;;;;;;4982527;28;20792;-61
2022/11/16 07:44:46;;;;;;;29.98;5.90;;;;;;;;;;4980215;28;20038;-61
2022/11/16 07:47:13;;;;;;;31.88;5.72;;;;;;;;;;4976942;28;20113;-61
2022/11/16 07:49:39;;;;;;;23.48;5.43;;;;;;;;;;4977294;28;20533;-62
2022/11/16 07:52:12;;;;;;;31.50;7.20;;;;;;;;;;4977421;28;20074;-64
2022/11/16 07:55:00;;;;;;;27.58;6.00;;;;;;;;;;4982969;28;20073;-64
2022/11/16 07:57:28;;;;;;;29.00;6.30;;;;;;;;;;5002189;28;20021;-62
2022/11/16 07:59:58;;;;;;;34.35;5.65;;;;;;;;;;4982725;28;20027;-62
2022/11/16 08:02:25;;;;;;;25.38;5.25;;;;;;;;;;4976688;28;20033;-62
2022/11/16 08:04:52;;;;;;;28.30;5.07;;;;;;;;;;4982108;28;20042;-65
2022/11/16 08:07:23;;;;;;;31.45;5.72;;;;;;;;;;4977111;28;20034;-65
2022/11/16 08:09:53;;;;;;;33.20;5.68;;;;;;;;;;4978282;28;20503;-65
2022/11/16 08:12:20;;;;;;;31.70;4.93;;;;;;;;;;4980782;28;20030;-65
2022/11/16 08:14:47;;;;;;;33.95;5.68;;;;;;;;;;4978315;28;20040;-65
2022/11/16 08:17:14;;;;;;;24.27;3.97;;;;;;;;;;4974061;28;20031;-65
2022/11/16 08:19:41;;;;;;;26.42;5.03;;;;;;;;;;4976216;28;20079;-65
2022/11/16 08:22:09;;;;;;;53.33;17.63;;;;;;;;;;4982248;28;20026;-65
2022/11/16 08:24:37;;;;;;;34.17;7.28;;;;;;;;;;4978705;28;20037;-65
2022/11/16 08:27:03;;;;;;;30.70;5.68;;;;;;;;;;4985588;28;20031;-64
2022/11/16 08:29:31;;;;;;;27.33;6.60;;;;;;;;;;4977083;28;20027;-64
2022/11/16 08:31:58;;;;;;;25.83;5.97;;;;;;;;;;4977154;28;20482;-64
2022/11/16 08:34:24;;;;;;;29.25;5.90;;;;;;;;;;4976561;28;20033;-65
2022/11/16 08:36:55;;;;;;;34.78;5.93;;;;;;;;;;4980414;28;20041;-64
2022/11/16 08:39:26;;;;;;;33.35;6.22;;;;;;;;;;4977951;28;20073;-64
2022/11/16 08:41:53;;;;;;;39.35;6.20;;;;;;;;;;4983491;28;20572;-63
2022/11/16 08:44:19;;;;;;;32.50;6.35;;;;;;;;;;4981973;28;20030;-63
2022/11/16 08:46:50;;;;;;;31.90;7.47;;;;;;;;;;4979744;28;20625;-64
2022/11/16 08:49:23;;;;;;;;;;;;;;;;;;4982275;28;20027;-63
2022/11/16 08:51:49;;;;;;;61.97;9.38;;;;;;;;;;4987841;28;19917;-64
2022/11/16 08:54:15;;;;;;;75.55;8.95;;;;;;;;;;4980814;28;20028;-64
2022/11/16 08:56:42;;;;;;;83.38;9.05;;;;;;;;;;4978528;28;20034;-63
2022/11/16 08:59:10;;;;;;;86.82;9.70;;;;;;;;;;4988516;28;20022;-63
2022/11/16 09:01:41;;;;;;;75.13;8.88;;;;;;;;;;4972424;28;20519;-64
2022/11/16 09:04:07;;;;;;;45.42;6.80;;;;;;;;;;4980927;28;20043;-64
2022/11/16 09:06:35;;;;;;;30.67;5.53;;;;;;;;;;4983081;28;20525;-63
2022/11/16 09:09:01;;;;;;;34.78;5.15;;;;;;;;;;4985419;28;20049;-64
2022/11/16 09:11:28;;;;;;;34.92;4.78;;;;;;;;;;4992383;28;20075;-64
2022/11/16 09:13:54;;;;;;;35.63;5.22;;;;;;;;;;4988176;28;20022;-64
2022/11/16 09:16:21;;;;;;;26.75;5.68;;;;;;;;;;4979033;28;20043;-64
2022/11/16 09:18:48;;;;;;;28.35;4.40;;;;;;;;;;4982815;28;20034;-63
2022/11/16 09:21:18;;;;;;;33.58;5.30;;;;;;;;;;4983236;28;20407;-63
2022/11/16 09:23:44;;;;;;;28.70;5.07;;;;;;;;;;4983874;28;20034;-63
2022/11/16 09:26:10;;;;;;;61.00;9.13;;;;;;;;;;4982834;28;20042;-63
2022/11/16 09:28:36;;;;;;;30.73;4.85;;;;;;;;;;4984860;28;20026;-64
2022/11/16 09:31:04;;;;;;;33.83;6.32;;;;;;;;;;4981421;28;20026;-64
2022/11/16 09:33:31;;;;;;;27.23;5.63;;;;;;;;;;4977990;28;20053;-64
2022/11/16 09:36:01;;;;;;;29.45;4.20;;;;;;;;;;4982362;28;20035;-64
2022/11/16 09:38:27;;;;;;;31.58;5.97;;;;;;;;;;4981640;28;20033;-64
2022/11/16 09:40:53;;;;;;;31.23;4.72;;;;;;;;;;4976459;28;20038;-63
2022/11/16 09:43:32;;;;;;;17.70;4.47;;;;;;;;;;4980363;28;20096;-63
2022/11/16 09:46:21;;;;;;;25.67;4.97;;;;;;;;;;4982059;28;20035;-64
2022/11/16 09:48:48;;;;;;;48.88;5.43;;;;;;;;;;4985043;28;20047;-64
2022/11/16 09:51:15;;;;;;;24.80;4.97;;;;;;;;;;4980067;28;20092;-63
2022/11/16 09:53:45;;;;;;;31.63;4.32;;;;;;;;;;4980675;28;20037;-62
2022/11/16 09:56:25;;;;;;;26.60;5.18;;;;;;;;;;4982649;28;20117;-62
2022/11/16 09:59:00;;;;;;;30.75;4.13;;;;;;;;;;4978624;28;20062;-61
2022/11/16 10:01:32;;;;;;;30.77;4.70;;;;;;;;;;4978325;28;20464;-61
2022/11/16 10:04:01;;;;;;;33.22;5.18;;;;;;;;;;4981004;28;20090;-61
2022/11/16 10:06:45;;;;;;;29.35;4.65;;;;;;;;;;4983882;28;20084;-60
2022/11/16 10:09:11;;;;;;;26.63;5.63;;;;;;;;;;4980146;28;20119;-61
2022/11/16 10:11:51;;;;;;;21.30;4.35;;;;;;;;;;4980415;28;20100;-61
2022/11/16 10:14:37;;;;;;;30.05;5.05;;;;;;;;;;4982488;28;20045;-61
2022/11/16 10:17:09;;;;;;;27.20;5.38;;;;;;;;;;4977466;28;20047;-61
2022/11/16 10:19:45;;;;;;;32.15;5.50;;;;;;;;;;4982262;28;20537;-61
2022/11/16 10:22:39;;;;;;;29.48;5.32;;;;;;;;;;4977761;28;20511;-61
2022/11/16 10:25:15;;;;;;;30.13;6.90;;;;;;;;;;4983509;28;20404;-61
2022/11/16 10:27:50;;;;;;;32.70;5.95;;;;;;;;;;4976878;28;20491;-62
2022/11/16 10:30:20;;;;;;;34.70;7.53;;;;;;;;;;4980795;28;20033;-61
2022/11/16 10:33:07;;;;;;;33.58;5.88;;;;;;;;;;4975648;28;20400;-61
2022/11/16 10:35:33;;;;;;;25.77;4.95;;;;;;;;;;4979723;28;20118;-61
2022/11/16 10:38:02;;;;;;;34.65;5.43;;;;;;;;;;4983455;28;20027;-61
2022/11/16 10:40:39;;;;;;;30.10;6.43;;;;;;;;;;4983916;28;20096;-61
2022/11/16 10:43:08;;;;;;;38.70;7.38;;;;;;;;;;4981032;28;20026;-61
2022/11/16 10:45:39;;;;;;;31.98;5.18;;;;;;;;;;4981124;28;20042;-61
2022/11/16 10:48:05;;;;;;;33.75;5.80;;;;;;;;;;4981084;28;20101;-61
2022/11/16 10:50:34;;;;;;;28.85;5.10;;;;;;;;;;4980535;28;20389;-61
2022/11/16 10:53:00;;;;;;;44.42;7.05;;;;;;;;;;4979319;28;20022;-61
2022/11/16 10:55:27;;;;;;;31.90;6.20;;;;;;;;;;4988522;28;20019;-62
2022/11/16 10:58:01;;;;;;;36.75;7.95;;;;;;;;;;4982028;28;20395;-62
2022/11/16 11:00:40;;;;;;;41.08;7.30;;;;;;;;;;4988242;28;20022;-62
2022/11/16 11:03:08;;;;;;;41.38;5.72;;;;;;;;;;4982554;28;20043;-62
2022/11/16 11:05:35;;;;;;;29.52;5.53;;;;;;;;;;4980711;28;20023;-62
2022/11/16 11:08:03;;;;;;;38.47;5.68;;;;;;;;;;4978257;28;20032;-62
2022/11/16 11:10:31;;;;;;;39.67;7.75;;;;;;;;;;4983785;28;20437;-62
2022/11/16 11:13:02;;;;;;;41.13;6.25;;;;;;;;;;4980289;28;20391;-61
2022/11/16 11:15:28;;;;;;;44.03;6.88;;;;;;;;;;4981552;28;20030;-61
2022/11/16 11:18:28;;;;;;;41.92;7.10;;;;;;;;;;4986443;28;20107;-61
2022/11/16 11:20:57;;;;;;;36.58;6.65;;;;;;;;;;5006788;28;20096;-62
2022/11/16 11:23:24;;;;;;;40.25;8.13;;;;;;;;;;5006733;28;20056;-62
2022/11/16 11:26:00;;;;;;;43.95;7.50;;;;;;;;;;5011905;28;20041;-61
2022/11/16 11:28:33;;;;;;;51.47;7.63;;;;;;;;;;5010373;28;20101;-62
2022/11/16 11:30:59;;;;;;;44.67;7.65;;;;;;;;;;5016629;28;20176;-61
2022/11/16 11:33:26;;;;;;;32.38;6.93;;;;;;;;;;5013700;28;20644;-61
2022/11/16 11:36:01;;;;;;;49.95;9.15;;;;;;;;;;5011759;28;20033;-62
2022/11/16 11:38:27;;;;;;;45.45;7.03;;;;;;;;;;5007379;28;20145;-62
2022/11/16 11:40:57;;;;;;;42.60;6.95;;;;;;;;;;5021147;28;20045;-62
2022/11/16 11:43:24;;;;;;;37.92;6.35;;;;;;;;;;5008691;28;20132;-61
2022/11/16 11:45:57;;;;;;;41.33;6.68;;;;;;;;;;5013688;28;20124;-64
2022/11/16 11:48:23;;;;;;;;;;;;;;;;;;5006094;28;20048;-62
2022/11/16 11:50:53;;;;;;;32.75;6.30;;;;;;;;;;4992659;28;20434;-62
2022/11/16 11:53:38;;;;;;;42.05;6.18;;;;;;;;;;5008625;28;20037;-62
2022/11/16 11:56:04;;;;;;;34.80;7.07;;;;;;;;;;4989131;28;20058;-62
2022/11/16 11:58:32;;;;;;;42.85;10.27;;;;;;;;;;4981501;28;20105;-62
2022/11/16 12:01:22;;;;;;;29.60;6.22;;;;;;;;;;4978683;28;20475;-61
2022/11/16 12:04:07;;;;;;;39.03;6.60;;;;;;;;;;4982837;28;20488;-62
2022/11/16 12:06:33;;;;;;;31.02;5.57;;;;;;;;;;4979485;28;20491;-62
2022/11/16 12:09:18;;;;;;;38.30;7.05;;;;;;;;;;4987105;28;20034;-62
2022/11/16 12:11:44;;;;;;;36.40;10.10;;;;;;;;;;4972004;28;20467;-62
2022/11/16 12:14:19;;;;;;;50.35;14.95;;;;;;;;;;4982533;28;20510;-62
2022/11/16 12:16:45;;;;;;;43.72;9.80;;;;;;;;;;4979959;28;20030;-62
2022/11/16 12:19:26;;;;;;;45.63;8.13;;;;;;;;;;4979150;28;20035;-62
2022/11/16 12:22:11;;;;;;;33.95;6.97;;;;;;;;;;4984479;28;20061;-62
2022/11/16 12:24:55;;;;;;;44.03;11.32;;;;;;;;;;4978066;28;20031;-62
2022/11/16 12:27:34;;;;;;;42.15;7.03;;;;;;;;;;4979010;28;20041;-61
2022/11/16 12:30:07;;;;;;;42.85;8.00;;;;;;;;;;4982025;28;20038;-62
2022/11/16 12:32:52;;;;;;;36.70;7.57;;;;;;;;;;4971309;28;20038;-62
2022/11/16 12:35:33;;;;;;;51.50;10.57;;;;;;;;;;4980658;28;20088;-62
2022/11/16 12:38:06;;;;;;;42.95;11.10;;;;;;;;;;4974950;28;20488;-62
2022/11/16 12:40:32;;;;;;;41.85;9.50;;;;;;;;;;4969211;28;20050;-62
2022/11/16 12:42:58;;;;;;;46.25;9.35;;;;;;;;;;4971023;28;20114;-62
2022/11/16 12:45:27;;;;;;;53.65;9.35;;;;;;;;;;4978674;28;20034;-62
2022/11/16 12:48:01;;;;;;;49.08;9.23;;;;;;;;;;4978605;28;20023;-62
2022/11/16 12:50:33;;;;;;;29.27;6.63;;;;;;;;;;4974411;28;20118;-62
2022/11/16 12:53:00;;;;;;;40.80;6.67;;;;;;;;;;4974456;28;20038;-62
2022/11/16 12:55:37;;;;;;;30.73;6.20;;;;;;;;;;4974999;28;20022;-62
2022/11/16 12:58:35;;;;;;;40.35;8.00;;;;;;;;;;4978262;28;20496;-62
2022/11/16 13:01:08;;;;;;;44.65;6.75;;;;;;;;;;4985103;28;20034;-63
2022/11/16 13:03:52;;;;;;;40.50;6.93;;;;;;;;;;4978516;28;20061;-62
2022/11/16 13:06:39;;;;;;;40.78;6.10;;;;;;;;;;4978714;28;20038;-62
2022/11/16 13:09:11;;;;;;;38.08;6.03;;;;;;;;;;4983071;28;20031;-62
2022/11/16 13:11:57;;;;;;;40.97;8.77;;;;;;;;;;4975921;28;20026;-62
2022/11/16 13:14:44;;;;;;;37.20;6.78;;;;;;;;;;4978543;28;20030;-62
2022/11/16 13:17:16;;;;;;;31.38;6.53;;;;;;;;;;4984297;28;20351;-62
2022/11/16 13:19:45;;;;;;;41.83;7.47;;;;;;;;;;4979749;28;20184;-63
2022/11/16 13:22:18;;;;;;;33.35;5.15;;;;;;;;;;4973447;28;20034;-62
2022/11/16 13:24:47;;;;;;;35.13;7.30;;;;;;;;;;4973016;28;20023;-62
2022/11/16 13:27:28;;;;;;;34.80;6.07;;;;;;;;;;4976697;28;20045;-63
2022/11/16 13:29:54;;;;;;;31.75;6.00;;;;;;;;;;4974745;28;20038;-63
2022/11/16 13:32:35;;;;;;;36.58;5.68;;;;;;;;;;4972407;28;20468;-63
2022/11/16 13:35:03;;;;;;;25.80;4.65;;;;;;;;;;4974367;28;20030;-63
2022/11/16 13:37:36;;;;;;;27.17;5.00;;;;;;;;;;4977371;28;20038;-63
2022/11/16 13:40:05;;;;;;;27.83;5.35;;;;;;;;;;4978086;28;20058;-63
2022/11/16 13:42:45;;;;;;;25.98;4.43;;;;;;;;;;4979702;28;20027;-63
2022/11/16 13:45:17;;;;;;;21.90;3.75;;;;;;;;;;4976664;28;20041;-63
2022/11/16 13:47:56;;;;;;;21.30;3.70;;;;;;;;;;4978543;28;20030;-63
2022/11/16 13:50:31;;;;;;;16.05;3.17;;;;;;;;;;4978017;28;20439;-63
2022/11/16 13:53:01;;;;;;;12.73;2.55;;;;;;;;;;4984502;28;20027;-63
2022/11/16 13:55:32;;;;;;;20.20;2.97;;;;;;;;;;4976642;28;20027;-63
2022/11/16 13:57:59;;;;;;;16.35;3.13;;;;;;;;;;4974133;28;20022;-63
2022/11/16 14:00:28;;;;;;;7.82;2.60;;;;;;;;;;4978368;28;20034;-63
2022/11/16 14:03:09;;;;;;;6.28;1.73;;;;;;;;;;4988211;28;20057;-63
2022/11/16 14:05:40;;;;;;;6.25;1.80;;;;;;;;;;4978922;28;20050;-63
2022/11/16 14:08:18;;;;;;;2.42;1.20;;;;;;;;;;4977049;28;20022;-64
2022/11/16 14:10:44;;;;;;;2.30;0.90;;;;;;;;;;4977941;28;20084;-63
2022/11/16 14:13:29;;;;;;;2.78;0.68;;;;;;;;;;4979962;28;20030;-63
2022/11/16 14:16:24;;;;;;;3.70;0.50;;;;;;;;;;4982335;28;20103;-63
2022/11/16 14:18:55;;;;;;;0.68;0.40;;;;;;;;;;4967456;28;20514;-63
2022/11/16 14:21:39;;;;;;;1.85;0.82;;;;;;;;;;4981377;28;20034;-63
2022/11/16 14:24:18;;;;;;;1.50;0.80;;;;;;;;;;4983189;28;20038;-64
2022/11/16 14:26:50;;;;;;;1.50;0.80;;;;;;;;;;4983509;28;20373;-63
2022/11/16 14:29:18;;;;;;;1.15;0.65;;;;;;;;;;4983641;28;20034;-64
2022/11/16 14:31:58;;;;;;;1.27;0.75;;;;;;;;;;4978502;28;20034;-63
2022/11/16 14:34:24;;;;;;;2.05;0.60;;;;;;;;;;4972204;28;20027;-63
2022/11/16 14:36:51;;;;;;;0.73;0.45;;;;;;;;;;4970766;28;20039;-64
2022/11/16 14:39:23;;;;;;;1.15;0.80;;;;;;;;;;4977864;28;20042;-64
2022/11/16 14:41:49;;;;;;;2.78;0.55;;;;;;;;;;4980721;28;20435;-64
2022/11/16 14:44:21;;;;;;;0.47;0.45;;;;;;;;;;4981738;28;20038;-64
2022/11/16 14:46:47;;;;;;;0.82;0.52;;;;;;;;;;4984967;28;20415;-64
2022/11/16 14:49:15;;;;;;;0.65;0.40;;;;;;;;;;4975763;28;20042;-64
2022/11/16 14:51:44;;;;;;;3.45;0.80;;;;;;;;;;4976365;28;20022;-64
2022/11/16 14:54:15;;;;;;;3.78;1.00;;;;;;;;;;4980319;28;20027;-64
2022/11/16 14:56:58;;;;;;;1.05;0.82;;;;;;;;;;4981879;28;20043;-63
2022/11/16 14:59:24;;;;;;;1.15;0.70;;;;;;;;;;4977540;28;20117;-63
2022/11/16 15:01:51;;;;;;;7.65;1.23;;;;;;;;;;4976200;28;20058;-63
2022/11/16 15:04:17;;;;;;;8.18;1.50;;;;;;;;;;4977198;28;20104;-63
2022/11/16 15:06:54;;;;;;;6.82;2.03;;;;;;;;;;4973794;28;20255;-63
2022/11/16 15:09:23;;;;;;;11.75;1.50;;;;;;;;;;4973378;28;20014;-63
2022/11/16 15:14:39;;;;;;;8.68;1.85;;;;;;;;;;4975255;28;20041;-63
2022/11/16 15:17:06;;;;;;;14.20;2.05;;;;;;;;;;4972868;28;20068;-63
2022/11/16 15:19:32;;;;;;;11.18;2.15;;;;;;;;;;4975493;28;20113;-63
2022/11/16 15:21:59;;;;;;;14.73;2.00;;;;;;;;;;4974368;28;20121;-63
2022/11/16 15:24:30;;;;;;;17.38;2.30;;;;;;;;;;4974477;28;20443;-63
2022/11/16 15:27:00;;;;;;;22.60;2.40;;;;;;;;;;4971932;28;20034;-63
2022/11/16 15:29:27;;;;;;;11.98;2.80;;;;;;;;;;4972224;28;20080;-63
2022/11/16 15:31:53;;;;;;;14.63;2.88;;;;;;;;;;4971519;28;20057;-63